Pine Canyon, Utah
Current Conditions -  °F | °C
As of 8:53 AM on Thursday 23 Oct 2014 (Local Time) from KSLC Reporting Station
Broken Clouds Broken Clouds  
Wind Chill: 11°   Ceiling: 16000
Heat Index: 11°   Visibility: 10mi
Dew Point:   Wind: 7mph
Humidity: 52%   Direction: 160°SSE
Pressure: 30.14"   Gusts: NA
Location:  40.5393°N, 112.353°W
Report Text: KSLC 231453Z 16006KT 10SM BKN160 BKN220 11/01 A3014 RMK AO2 SLP187 ACSL DSNT SE T01060011 53006
Loading
Personal Weather Stations






























Interactive Weather Map
Tropical Storm Tracking
New forecast layout! Learn more

10-Day Weather Forecast

Advertisements
Track Severe Weather on mobile